Time;durP1;ratioP1;P1;durP2;ratioP2;P2;SDS_P1;SDS_P2;PMS_P1;PMS_P2;Temp;Humidity;BMP_temperature;BMP_pressure;BME280_temperature;BME280_humidity;BME280_pressure;Samples;Min_cycle;Max_cycle;Signal;HPM_P1;HPM_P2
2022/06/09 00:01:55;;;;;;;5.50;5.00;;;16.70;99.90;;;;;;5051650;28;20255;-66
2022/06/09 00:04:28;;;;;;;6.43;5.63;;;16.70;99.90;;;;;;5051215;28;20224;-66
2022/06/09 00:07:00;;;;;;;6.00;5.43;;;16.70;99.90;;;;;;5052374;28;20227;-66
2022/06/09 00:09:30;;;;;;;6.50;5.90;;;16.60;99.90;;;;;;5049435;28;20262;-66
2022/06/09 00:11:58;;;;;;;7.07;6.33;;;16.60;99.90;;;;;;5052195;28;20303;-66
2022/06/09 00:14:26;;;;;;;7.50;6.40;;;16.60;99.90;;;;;;5050294;28;20237;-66
2022/06/09 00:16:56;;;;;;;6.53;5.93;;;16.70;99.90;;;;;;5052470;28;20290;-66
2022/06/09 00:19:25;;;;;;;8.20;6.07;;;16.60;99.90;;;;;;5049284;28;20783;-66
2022/06/09 00:21:53;;;;;;;6.73;6.07;;;16.70;99.90;;;;;;5050862;28;20708;-66
2022/06/09 00:24:22;;;;;;;7.23;6.50;;;16.60;99.90;;;;;;5052167;28;20679;-66
2022/06/09 00:26:50;;;;;;;7.17;6.27;;;16.60;99.90;;;;;;5052280;28;20706;-66
2022/06/09 00:29:18;;;;;;;7.90;7.17;;;16.60;99.90;;;;;;5047434;28;20224;-66
2022/06/09 00:31:46;;;;;;;7.17;6.50;;;16.60;99.90;;;;;;5051758;28;20239;-66
2022/06/09 00:34:14;;;;;;;7.10;6.50;;;16.60;99.90;;;;;;5050288;28;20242;-66
2022/06/09 00:36:44;;;;;;;7.23;6.53;;;16.60;99.90;;;;;;5052355;28;20755;-66
2022/06/09 00:39:12;;;;;;;6.87;6.27;;;16.50;99.90;;;;;;5049420;28;20234;-67
2022/06/09 00:41:41;;;;;;;7.30;6.60;;;16.60;99.90;;;;;;5051753;28;20277;-66
2022/06/09 00:44:17;;;;;;;6.87;6.20;;;16.50;99.90;;;;;;5051466;28;20754;-66
2022/06/09 00:46:50;;;;;;;8.00;7.27;;;16.60;99.90;;;;;;5044439;28;20223;-66
2022/06/09 00:49:23;;;;;;;8.83;7.23;;;16.50;99.90;;;;;;5049182;28;20592;-66
2022/06/09 00:51:57;;;;;;;8.00;7.20;;;16.50;99.90;;;;;;5051858;28;20224;-66
2022/06/09 00:54:30;;;;;;;6.93;6.23;;;16.50;99.90;;;;;;5051541;28;20223;-66
2022/06/09 00:57:03;;;;;;;9.17;7.20;;;16.50;99.90;;;;;;5051679;28;20224;-66
2022/06/09 00:59:32;;;;;;;7.83;7.07;;;16.40;99.90;;;;;;5048433;28;20232;-66
2022/06/09 01:02:02;;;;;;;8.40;7.50;;;16.40;99.90;;;;;;5051231;28;20621;-66
2022/06/09 01:04:33;;;;;;;7.27;6.57;;;16.40;99.90;;;;;;5051754;28;20897;-66
2022/06/09 01:07:07;;;;;;;8.30;7.50;;;16.40;99.90;;;;;;5051859;28;20228;-66
2022/06/09 01:09:36;;;;;;;9.13;8.23;;;16.40;99.90;;;;;;5048761;28;20354;-66
2022/06/09 01:12:22;;;;;;;7.63;6.87;;;16.30;99.90;;;;;;5051791;28;20228;-66
2022/06/09 01:14:50;;;;;;;7.63;6.90;;;16.30;99.90;;;;;;5051010;28;20220;-66
2022/06/09 01:17:27;;;;;;;7.67;6.97;;;16.30;99.90;;;;;;5054223;28;20239;-66
2022/06/09 01:20:12;;;;;;;7.53;6.83;;;16.30;99.90;;;;;;5052038;28;20251;-66
2022/06/09 01:23:18;;;;;;;7.33;6.43;;;16.20;99.90;;;;;;5055402;28;20699;-66
2022/06/09 01:26:28;;;;;;;6.60;5.90;;;16.20;99.90;;;;;;5029641;28;20251;-66
2022/06/09 01:29:28;;;;;;;5.50;5.00;;;16.20;99.90;;;;;;5047047;28;20227;-66
2022/06/09 01:32:03;;;;;;;6.40;5.80;;;16.20;99.90;;;;;;5024135;28;20319;-66
2022/06/09 01:34:38;;;;;;;5.93;5.33;;;16.10;99.90;;;;;;5054618;28;20263;-66
2022/06/09 01:37:11;;;;;;;5.13;4.67;;;16.20;99.90;;;;;;5054499;28;20322;-66
2022/06/09 01:39:51;;;;;;;6.50;5.37;;;16.20;99.90;;;;;;5051753;28;20215;-66
2022/06/09 01:42:29;;;;;;;5.17;4.70;;;16.20;99.90;;;;;;5054701;28;20240;-66
2022/06/09 01:45:02;;;;;;;5.50;5.00;;;16.20;99.90;;;;;;5046054;28;20326;-66
2022/06/09 01:47:52;;;;;;;5.83;5.30;;;16.20;99.90;;;;;;5054974;28;20273;-66
2022/06/09 01:50:30;;;;;;;5.47;4.97;;;16.10;99.90;;;;;;5052054;28;20223;-66
2022/06/09 01:53:02;;;;;;;6.00;4.73;;;16.20;99.90;;;;;;5055123;28;20231;-66
2022/06/09 01:55:32;;;;;;;7.73;4.63;;;16.10;99.90;;;;;;5054199;28;20266;-66
2022/06/09 01:58:03;;;;;;;9.20;4.63;;;16.10;99.90;;;;;;5054214;28;20238;-66
2022/06/09 02:00:32;;;;;;;6.53;5.20;;;16.10;99.90;;;;;;5051599;28;20259;-66
2022/06/09 02:03:06;;;;;;;7.07;5.17;;;16.10;99.90;;;;;;5052534;28;20232;-66
2022/06/09 02:05:40;;;;;;;5.70;5.13;;;16.10;99.90;;;;;;5054100;28;20789;-66
2022/06/09 02:08:16;;;;;;;5.30;4.47;;;16.10;99.90;;;;;;5054531;28;20220;-65
2022/06/09 02:10:47;;;;;;;5.67;5.03;;;16.00;99.90;;;;;;5048421;28;20737;-66
2022/06/09 02:13:20;;;;;;;6.83;5.70;;;16.10;99.90;;;;;;5054442;28;20278;-66
2022/06/09 02:15:51;;;;;;;6.40;5.17;;;16.00;99.90;;;;;;5054118;28;20622;-66
2022/06/09 02:18:22;;;;;;;8.47;5.17;;;16.00;99.90;;;;;;5054490;28;20676;-66
2022/06/09 02:20:53;;;;;;;7.90;5.67;;;15.90;99.90;;;;;;5050967;28;20243;-66
2022/06/09 02:23:22;;;;;;;6.80;5.20;;;15.90;99.90;;;;;;5054459;28;20251;-66
2022/06/09 02:25:50;;;;;;;8.20;5.97;;;15.90;99.90;;;;;;5053774;28;20582;-66
2022/06/09 02:28:18;;;;;;;7.20;5.70;;;15.90;99.90;;;;;;5052985;28;20224;-66
2022/06/09 02:30:47;;;;;;;6.63;5.90;;;15.90;99.90;;;;;;5050300;28;20227;-66
2022/06/09 02:33:18;;;;;;;7.17;6.40;;;15.90;99.90;;;;;;5054368;28;20553;-66
2022/06/09 02:35:49;;;;;;;7.43;6.73;;;15.80;99.90;;;;;;5053367;28;20223;-66
2022/06/09 02:38:18;;;;;;;6.93;6.33;;;15.80;99.90;;;;;;5053893;28;20741;-66
2022/06/09 02:40:46;;;;;;;6.93;6.33;;;15.80;99.90;;;;;;5051217;28;20699;-66
2022/06/09 02:43:15;;;;;;;9.80;7.63;;;15.80;99.90;;;;;;5053565;28;20228;-66
2022/06/09 02:45:44;;;;;;;8.30;7.50;;;15.80;99.90;;;;;;5053795;28;20563;-66
2022/06/09 02:48:12;;;;;;;12.47;9.00;;;15.80;99.90;;;;;;5053695;28;20223;-66
2022/06/09 02:50:42;;;;;;;11.10;8.90;;;15.70;99.90;;;;;;5050397;28;20809;-66
2022/06/09 02:53:11;;;;;;;9.13;8.27;;;15.70;99.90;;;;;;5053893;28;20232;-66
2022/06/09 02:55:39;;;;;;;11.63;9.00;;;15.70;99.90;;;;;;5053142;28;20768;-66
2022/06/09 02:58:08;;;;;;;12.40;9.27;;;15.70;99.90;;;;;;5053128;28;20238;-66
2022/06/09 03:00:40;;;;;;;11.47;9.40;;;15.70;99.90;;;;;;5049839;28;20255;-66
2022/06/09 03:03:12;;;;;;;11.30;9.77;;;15.70;99.90;;;;;;5052883;28;20227;-66
2022/06/09 03:05:41;;;;;;;10.37;9.37;;;15.70;99.90;;;;;;5053202;28;20580;-66
2022/06/09 03:08:10;;;;;;;11.93;9.53;;;15.70;99.90;;;;;;5053056;28;20212;-66
2022/06/09 03:10:39;;;;;;;12.37;11.07;;;15.70;99.90;;;;;;5050557;28;20568;-65
2022/06/09 03:13:07;;;;;;;12.43;11.23;;;15.70;99.90;;;;;;5053132;28;20699;-66
2022/06/09 03:15:36;;;;;;;12.17;10.73;;;15.70;99.90;;;;;;5052747;28;20236;-66
2022/06/09 03:18:05;;;;;;;13.27;11.33;;;15.70;99.90;;;;;;5051720;28;20277;-65
2022/06/09 03:20:34;;;;;;;14.03;11.33;;;15.70;99.90;;;;;;5049105;28;20329;-66
2022/06/09 03:23:02;;;;;;;13.07;11.30;;;15.70;99.90;;;;;;5052733;28;20232;-66
2022/06/09 03:25:33;;;;;;;16.07;13.63;;;15.70;99.90;;;;;;5039017;28;20753;-66
2022/06/09 03:28:01;;;;;;;14.33;11.83;;;15.60;99.90;;;;;;5052831;28;20228;-65
2022/06/09 03:30:33;;;;;;;15.83;13.63;;;15.60;99.90;;;;;;5050014;28;20223;-66
2022/06/09 03:33:01;;;;;;;16.13;14.60;;;15.70;99.90;;;;;;5051110;28;20231;-65
2022/06/09 03:35:30;;;;;;;15.23;13.73;;;15.70;99.90;;;;;;5052506;28;20774;-66
2022/06/09 03:37:59;;;;;;;16.13;14.37;;;15.70;99.90;;;;;;5052492;28;20233;-66
2022/06/09 03:40:28;;;;;;;16.00;13.80;;;15.70;99.90;;;;;;5047322;28;20313;-66
2022/06/09 03:42:59;;;;;;;16.77;15.07;;;15.70;99.90;;;;;;5051502;28;20592;-66
2022/06/09 03:45:27;;;;;;;15.67;14.03;;;15.70;99.90;;;;;;5052406;28;20232;-66
2022/06/09 03:47:55;;;;;;;15.00;13.43;;;15.70;99.90;;;;;;5052174;28;20226;-66
2022/06/09 03:50:26;;;;;;;14.47;12.90;;;15.70;99.90;;;;;;5049525;28;20224;-66
2022/06/09 03:52:54;;;;;;;14.90;12.70;;;15.70;99.90;;;;;;5048616;28;20592;-66
2022/06/09 03:55:22;;;;;;;16.13;12.87;;;15.70;99.90;;;;;;5051477;28;20262;-66
2022/06/09 03:57:51;;;;;;;15.10;13.47;;;15.60;99.90;;;;;;5051944;28;20742;-66
2022/06/09 04:00:23;;;;;;;16.87;13.43;;;15.70;99.90;;;;;;5051397;28;20224;-66
2022/06/09 04:02:51;;;;;;;14.37;12.87;;;15.70;99.90;;;;;;5049151;28;20242;-66
2022/06/09 04:05:20;;;;;;;14.77;11.67;;;15.70;99.90;;;;;;5052096;28;20230;-66
2022/06/09 04:07:48;;;;;;;11.83;10.63;;;15.60;99.90;;;;;;5051856;28;20251;-66
2022/06/09 04:10:20;;;;;;;13.20;10.80;;;15.70;99.90;;;;;;5051298;28;20220;-66
2022/06/09 04:12:48;;;;;;;11.20;9.80;;;15.60;99.90;;;;;;5052280;28;20726;-66
2022/06/09 04:15:17;;;;;;;12.30;10.70;;;15.60;99.90;;;;;;5054978;28;20215;-66
2022/06/09 04:17:47;;;;;;;11.70;10.50;;;15.60;99.90;;;;;;5061246;28;20231;-66
2022/06/09 04:20:18;;;;;;;11.77;9.93;;;15.60;99.90;;;;;;5055674;28;20243;-66
2022/06/09 04:22:47;;;;;;;12.00;9.20;;;15.60;99.90;;;;;;5059333;28;20235;-66
2022/06/09 04:25:17;;;;;;;10.10;9.20;;;15.70;99.90;;;;;;5060981;28;20222;-66
2022/06/09 04:27:46;;;;;;;9.97;9.03;;;15.70;99.90;;;;;;5050811;28;20230;-66
2022/06/09 04:30:15;;;;;;;12.00;9.47;;;15.70;99.90;;;;;;5050821;28;20259;-66
2022/06/09 04:32:53;;;;;;;9.83;8.93;;;15.70;99.90;;;;;;5047686;28;20228;-66
2022/06/09 04:35:21;;;;;;;10.43;8.90;;;15.70;99.90;;;;;;5049828;28;20236;-66
2022/06/09 04:38:01;;;;;;;9.67;8.77;;;15.80;99.90;;;;;;5060793;28;20223;-66
2022/06/09 04:40:33;;;;;;;9.33;8.33;;;15.80;99.90;;;;;;5048844;28;20219;-66
2022/06/09 04:43:02;;;;;;;9.30;8.40;;;15.80;99.90;;;;;;5052014;28;20251;-66
2022/06/09 04:45:31;;;;;;;9.53;8.57;;;15.80;99.90;;;;;;5052344;28;20735;-66
2022/06/09 04:48:01;;;;;;;9.77;8.77;;;15.90;99.90;;;;;;5051649;28;20216;-66
2022/06/09 04:50:30;;;;;;;9.33;8.43;;;15.90;99.90;;;;;;5050491;28;20235;-68
2022/06/09 04:52:58;;;;;;;9.43;8.53;;;16.00;99.90;;;;;;5050111;28;20232;-66
2022/06/09 04:55:27;;;;;;;9.90;9.00;;;16.00;99.90;;;;;;5052175;28;20226;-67
2022/06/09 04:57:56;;;;;;;11.47;8.87;;;16.00;99.90;;;;;;5057926;28;20636;-66
2022/06/09 05:00:26;;;;;;;9.83;8.83;;;16.10;99.90;;;;;;5052527;28;20232;-67
2022/06/09 05:02:55;;;;;;;8.80;7.90;;;16.20;99.90;;;;;;5055082;28;20326;-67
2022/06/09 05:05:27;;;;;;;9.00;8.17;;;16.30;99.90;;;;;;5055601;28;20236;-66
2022/06/09 05:07:56;;;;;;;8.53;7.63;;;16.40;99.90;;;;;;5055352;28;20227;-67
2022/06/09 05:10:25;;;;;;;9.03;8.23;;;16.40;99.90;;;;;;5053743;28;20228;-66
2022/06/09 05:12:54;;;;;;;10.20;9.20;;;16.50;99.90;;;;;;5055659;28;20699;-67
2022/06/09 05:15:22;;;;;;;9.17;8.30;;;16.60;99.90;;;;;;5055677;28;20224;-66
2022/06/09 05:17:52;;;;;;;9.03;8.03;;;16.60;99.90;;;;;;5054965;28;20278;-66
2022/06/09 05:20:24;;;;;;;8.13;7.43;;;16.50;99.90;;;;;;5053550;28;20342;-67
2022/06/09 05:22:52;;;;;;;8.80;8.00;;;16.60;99.90;;;;;;5055193;28;20238;-66
2022/06/09 05:25:20;;;;;;;8.60;7.57;;;16.60;99.90;;;;;;5055060;28;20224;-66
2022/06/09 05:27:49;;;;;;;7.67;6.97;;;16.60;99.90;;;;;;5054808;28;20232;-66
2022/06/09 05:30:20;;;;;;;7.63;6.87;;;16.60;99.90;;;;;;5049819;28;20220;-67
2022/06/09 05:32:49;;;;;;;7.00;6.30;;;16.70;99.90;;;;;;5053560;28;20289;-66
2022/06/09 05:35:18;;;;;;;7.00;6.40;;;16.70;99.90;;;;;;5054775;28;20242;-67
2022/06/09 05:46:15;;;;;;;8.10;7.40;;;16.80;99.90;;;;;;5053823;28;20700;-66
2022/06/09 05:48:44;;;;;;;7.80;7.10;;;16.80;99.90;;;;;;5053912;28;20223;-66
2022/06/09 05:51:12;;;;;;;8.33;7.53;;;16.80;99.90;;;;;;5068617;28;20229;-66
2022/06/09 05:53:42;;;;;;;7.10;6.50;;;16.80;99.90;;;;;;5054550;28;20232;-66
2022/06/09 05:56:11;;;;;;;8.03;7.23;;;16.90;99.90;;;;;;5053120;28;20235;-66
2022/06/09 05:58:39;;;;;;;7.57;6.93;;;16.90;99.90;;;;;;5053249;28;20220;-66
2022/06/09 06:01:09;;;;;;;8.93;8.03;;;17.00;99.90;;;;;;5050840;28;20572;-66
2022/06/09 06:03:39;;;;;;;9.27;8.37;;;17.00;99.90;;;;;;5054599;28;20699;-66
2022/06/09 06:08:55;;;;;;;11.00;9.93;;;17.10;99.90;;;;;;5051817;28;20212;-67
2022/06/09 06:11:24;;;;;;;10.90;9.47;;;17.10;99.90;;;;;;5054130;28;20220;-66
2022/06/09 06:13:54;;;;;;;10.50;9.50;;;17.10;99.90;;;;;;5053278;28;20224;-67
2022/06/09 06:16:24;;;;;;;10.87;9.80;;;17.10;99.90;;;;;;5052510;28;20235;-66
2022/06/09 06:19:04;;;;;;;11.10;9.93;;;17.10;99.90;;;;;;5051907;28;20239;-66
2022/06/09 06:21:32;;;;;;;11.60;9.83;;;17.10;99.90;;;;;;5054307;28;20639;-67
2022/06/09 06:24:03;;;;;;;11.53;10.27;;;17.20;99.90;;;;;;5054203;28;20707;-66
2022/06/09 06:26:32;;;;;;;11.20;10.10;;;17.20;99.90;;;;;;5044048;28;20236;-66
2022/06/09 06:29:01;;;;;;;11.40;10.30;;;17.30;99.90;;;;;;5050251;28;20228;-67
2022/06/09 06:31:29;;;;;;;11.47;10.27;;;17.40;99.90;;;;;;5052888;28;20229;-67
2022/06/09 06:33:58;;;;;;;12.40;9.97;;;17.50;99.90;;;;;;5053164;28;20628;-67
2022/06/09 06:36:27;;;;;;;11.23;10.03;;;17.70;99.90;;;;;;5042763;28;20224;-66
2022/06/09 06:38:55;;;;;;;10.60;9.50;;;17.80;99.90;;;;;;5050486;28;20251;-68
2022/06/09 06:41:25;;;;;;;10.53;9.60;;;17.90;99.90;;;;;;5048111;28;20256;-67
2022/06/09 06:43:53;;;;;;;11.07;9.90;;;17.90;99.90;;;;;;5044494;28;20271;-67
2022/06/09 06:46:21;;;;;;;11.47;10.07;;;18.00;99.90;;;;;;5041118;28;20708;-68
2022/06/09 06:48:50;;;;;;;11.27;9.97;;;18.00;99.90;;;;;;5038923;28;20217;-67
2022/06/09 06:51:18;;;;;;;11.13;10.03;;;18.00;99.90;;;;;;5038517;28;20621;-67
2022/06/09 06:53:47;;;;;;;11.17;10.07;;;17.90;99.90;;;;;;5032871;28;20564;-66
2022/06/09 06:56:15;;;;;;;11.87;10.60;;;17.80;99.90;;;;;;5039304;28;20237;-67
2022/06/09 06:58:44;;;;;;;11.00;9.90;;;17.80;99.90;;;;;;5038771;28;20230;-67
2022/06/09 07:01:12;;;;;;;11.97;10.40;;;17.80;99.90;;;;;;5037623;28;20241;-68
2022/06/09 07:03:41;;;;;;;10.77;9.43;;;17.80;99.90;;;;;;5033840;28;20745;-67
2022/06/09 07:06:10;;;;;;;12.57;11.37;;;17.70;99.90;;;;;;5037858;28;20645;-68
2022/06/09 07:08:38;;;;;;;10.97;9.83;;;17.70;99.90;;;;;;5038477;28;20246;-67
2022/06/09 07:11:08;;;;;;;12.30;10.33;;;17.60;99.90;;;;;;5036910;28;20256;-68
2022/06/09 07:13:37;;;;;;;12.60;10.37;;;17.60;99.90;;;;;;5037837;28;20475;-67
2022/06/09 07:16:08;;;;;;;11.87;10.60;;;17.60;99.90;;;;;;5041504;28;20237;-67
2022/06/09 07:18:51;;;;;;;11.63;9.70;;;17.50;99.90;;;;;;5040776;28;20201;-67
2022/06/09 07:21:19;;;;;;;10.70;9.60;;;17.50;99.90;;;;;;5032338;28;20240;-67
2022/06/09 07:23:47;;;;;;;12.27;10.60;;;17.50;99.90;;;;;;5037984;28;20787;-67
2022/06/09 07:26:15;;;;;;;11.03;9.93;;;17.40;99.90;;;;;;5041886;28;20241;-67
2022/06/09 07:28:43;;;;;;;13.10;10.37;;;17.20;99.90;;;;;;5042047;28;20312;-68
2022/06/09 07:31:13;;;;;;;12.40;10.17;;;17.10;99.90;;;;;;5042053;28;20248;-66
2022/06/09 07:33:42;;;;;;;13.50;10.00;;;17.10;99.90;;;;;;5037282;28;20357;-67
2022/06/09 07:36:13;;;;;;;12.10;10.30;;;17.10;99.90;;;;;;5042351;28;20247;-67
2022/06/09 07:38:42;;;;;;;13.33;10.07;;;17.20;99.90;;;;;;5042017;28;21051;-66
2022/06/09 07:41:10;;;;;;;13.03;10.80;;;17.30;99.90;;;;;;5039221;28;20311;-68
2022/06/09 07:43:56;;;;;;;13.80;10.57;;;17.40;99.90;;;;;;5035495;28;20237;-67
2022/06/09 07:46:26;;;;;;;12.03;10.57;;;17.40;99.90;;;;;;5039395;28;21724;-68
2022/06/09 07:48:55;;;;;;;13.87;10.37;;;17.30;99.90;;;;;;5039204;28;21099;-68
2022/06/09 07:51:24;;;;;;;12.20;10.90;;;17.30;99.90;;;;;;5039527;28;20232;-67
2022/06/09 07:53:53;;;;;;;13.13;11.00;;;17.20;99.90;;;;;;5033648;28;20228;-68
2022/06/09 07:56:22;;;;;;;14.43;10.80;;;17.20;99.90;;;;;;5038266;28;20242;-67
2022/06/09 07:58:50;;;;;;;13.37;11.73;;;17.20;99.90;;;;;;5040213;28;21138;-68
2022/06/09 08:01:20;;;;;;;13.10;11.07;;;17.20;99.90;;;;;;5041562;28;20232;-66
2022/06/09 08:03:50;;;;;;;14.50;11.87;;;17.20;99.90;;;;;;5037543;28;20769;-66
2022/06/09 08:06:18;;;;;;;13.47;10.80;;;17.20;99.90;;;;;;5041528;28;20719;-67
2022/06/09 08:08:52;;;;;;;12.60;11.30;;;17.20;99.90;;;;;;5038945;28;20237;-67
2022/06/09 08:11:20;;;;;;;14.73;11.90;;;17.20;99.90;;;;;;5039069;28;20232;-68
2022/06/09 08:13:49;;;;;;;15.10;12.60;;;17.20;99.90;;;;;;5033412;28;20236;-67
2022/06/09 08:16:17;;;;;;;15.63;12.20;;;17.20;99.90;;;;;;5038639;28;20395;-67
2022/06/09 08:18:45;;;;;;;14.00;11.40;;;17.20;99.90;;;;;;5039731;28;20235;-67
2022/06/09 08:21:15;;;;;;;14.07;11.10;;;17.20;99.90;;;;;;5041451;28;20244;-68
2022/06/09 08:24:01;;;;;;;12.83;11.10;;;17.20;99.90;;;;;;5036957;28;20240;-68
2022/06/09 08:26:30;;;;;;;14.07;11.27;;;17.20;99.90;;;;;;5042815;28;20306;-67
2022/06/09 08:28:59;;;;;;;13.60;11.47;;;17.30;99.90;;;;;;5046122;28;20244;-68
2022/06/09 08:31:27;;;;;;;12.00;10.70;;;17.30;99.90;;;;;;5045586;28;20255;-67
2022/06/09 08:33:55;;;;;;;13.17;10.57;;;17.40;99.90;;;;;;5041498;28;20371;-68
2022/06/09 08:36:25;;;;;;;13.93;11.00;;;17.40;99.90;;;;;;5046191;28;20244;-67
2022/06/09 08:38:53;;;;;;;13.67;11.40;;;17.50;99.90;;;;;;5045075;28;20236;-67
2022/06/09 08:41:37;;;;;;;13.97;10.10;;;17.40;99.90;;;;;;5045763;28;20331;-68
2022/06/09 08:44:17;;;;;;;15.20;10.87;;;17.50;99.90;;;;;;5040480;28;20271;-67
2022/06/09 08:46:57;;;;;;;14.27;11.23;;;17.60;99.90;;;;;;5045776;28;20578;-67
2022/06/09 08:49:38;;;;;;;16.57;11.47;;;17.70;99.90;;;;;;5045478;28;20232;-67
2022/06/09 08:52:16;;;;;;;15.27;10.93;;;17.80;99.90;;;;;;5043876;28;20727;-68
2022/06/09 08:54:47;;;;;;;15.23;11.00;;;17.80;99.90;;;;;;5035668;28;20232;-67
2022/06/09 08:57:22;;;;;;;17.57;11.50;;;17.70;99.90;;;;;;5041529;28;20320;-67
2022/06/09 08:59:57;;;;;;;16.87;12.03;;;17.60;99.90;;;;;;5041717;28;20241;-67
2022/06/09 09:02:32;;;;;;;13.73;10.70;;;17.70;99.90;;;;;;5042740;28;20237;-67
2022/06/09 09:05:11;;;;;;;13.93;12.17;;;17.70;99.90;;;;;;5040622;28;20461;-68
2022/06/09 09:07:44;;;;;;;15.03;12.30;;;17.60;99.90;;;;;;5040803;28;20822;-67
2022/06/09 09:10:21;;;;;;;15.77;11.20;;;17.50;99.90;;;;;;5042152;28;20701;-67
2022/06/09 09:13:00;;;;;;;13.57;11.63;;;17.60;99.90;;;;;;5042621;28;20279;-67
2022/06/09 09:15:34;;;;;;;14.33;11.47;;;17.60;99.90;;;;;;5039062;28;20994;-67
2022/06/09 09:18:17;;;;;;;16.07;11.43;;;17.60;99.90;;;;;;5043866;28;20282;-67
2022/06/09 09:20:54;;;;;;;17.03;11.97;;;17.50;99.90;;;;;;5043124;28;20735;-67
2022/06/09 09:23:32;;;;;;;13.87;11.53;;;17.50;99.90;;;;;;5034638;28;20233;-68
2022/06/09 09:26:09;;;;;;;14.77;12.70;;;17.60;99.90;;;;;;5040388;28;20235;-67
2022/06/09 09:28:47;;;;;;;14.53;11.57;;;17.80;99.90;;;;;;5040592;28;20564;-67
2022/06/09 09:31:30;;;;;;;13.80;11.20;;;18.30;99.90;;;;;;5039264;28;20237;-67
2022/06/09 09:34:00;;;;;;;13.47;11.57;;;18.60;99.90;;;;;;5035327;28;20232;-68
2022/06/09 09:36:31;;;;;;;13.07;11.20;;;18.50;99.90;;;;;;5040018;28;20252;-68
2022/06/09 09:39:10;;;;;;;13.93;11.30;;;18.30;99.90;;;;;;5041080;28;20234;-68
2022/06/09 09:41:40;;;;;;;15.73;11.87;;;18.20;99.90;;;;;;5042939;28;20234;-66
2022/06/09 09:44:16;;;;;;;13.87;10.83;;;18.20;99.90;;;;;;5038575;28;20230;-67
2022/06/09 09:46:48;;;;;;;12.33;11.00;;;18.10;99.90;;;;;;5042876;28;20229;-68
2022/06/09 09:49:24;;;;;;;14.70;11.27;;;18.00;99.90;;;;;;5043002;28;20237;-67
2022/06/09 09:51:52;;;;;;;11.97;10.73;;;17.80;99.90;;;;;;5042885;28;20265;-67
2022/06/09 09:54:26;;;;;;;11.27;10.17;;;17.70;99.90;;;;;;5038128;28;20233;-67
2022/06/09 09:57:13;;;;;;;10.33;9.37;;;17.80;99.90;;;;;;5039655;28;20696;-68
2022/06/09 09:59:47;;;;;;;10.27;9.17;;;18.00;99.90;;;;;;5037626;28;20672;-68
2022/06/09 10:08:38;;;;;;;8.00;7.10;;;20.30;99.90;;;;;;5040572;28;20292;-67
2022/06/09 10:14:34;;;;;;;5.83;5.30;;;21.70;99.90;;;;;;5038591;28;20242;-68
2022/06/09 10:17:04;;;;;;;5.43;5.00;;;22.10;99.90;;;;;;5043213;28;20234;-66
2022/06/09 10:19:53;;;;;;;5.10;4.60;;;22.70;99.90;;;;;;5042700;28;20248;-66
2022/06/09 10:22:24;;;;;;;4.33;3.93;;;22.70;99.90;;;;;;5004270;28;1132186;-66
2022/06/09 10:24:57;;;;;;;4.40;4.10;;;22.50;99.90;;;;;;5038494;28;20231;-66
2022/06/09 10:27:39;;;;;;;4.57;4.17;;;22.00;99.90;;;;;;5044024;28;20811;-67
2022/06/09 10:30:13;;;;;;;4.90;4.50;;;21.70;99.90;;;;;;5043328;28;20719;-67
2022/06/09 10:32:47;;;;;;;5.60;5.10;;;21.40;99.90;;;;;;5008733;28;20747;-67
2022/06/09 10:35:23;;;;;;;5.73;5.23;;;21.80;99.90;;;;;;5003172;28;20231;-66
2022/06/09 10:37:56;;;;;;;5.60;5.10;;;22.20;99.90;;;;;;5008086;28;20325;-67
2022/06/09 10:40:34;;;;;;;6.43;5.93;;;22.60;99.90;;;;;;5008747;28;20584;-67
2022/06/09 10:43:13;;;;;;;6.80;6.20;;;22.30;99.90;;;;;;5006864;28;20320;-68
2022/06/09 10:45:49;;;;;;;7.63;6.80;;;21.80;99.90;;;;;;5006513;28;20592;-66
2022/06/09 10:57:15;;;;;;;8.13;7.33;;;21.10;99.90;;;;;;5007038;28;20244;-67
2022/06/09 10:59:51;;;;;;;8.50;7.50;;;21.30;99.90;;;;;;5007383;28;20313;-67
2022/06/09 11:02:21;;;;;;;7.90;7.20;;;21.30;99.90;;;;;;5037229;28;20621;-67
2022/06/09 11:04:51;;;;;;;7.00;6.33;;;21.10;99.90;;;;;;5038664;28;20356;-66
2022/06/09 11:07:57;;;;;;;7.80;7.10;;;21.00;99.90;;;;;;5042547;28;20218;-68
2022/06/09 11:10:32;;;;;;;7.33;6.63;;;21.00;99.90;;;;;;4953578;28;20248;-67
2022/06/09 11:13:29;;;;;;;8.03;7.23;;;21.70;99.90;;;;;;5030109;28;20805;-68
2022/06/09 11:16:05;;;;;;;7.50;6.80;;;22.60;99.90;;;;;;5015595;28;20271;-66
2022/06/09 11:18:42;;;;;;;7.03;6.33;;;22.80;99.90;;;;;;5042733;28;20234;-67
2022/06/09 11:21:20;;;;;;;6.83;6.23;;;22.40;99.90;;;;;;5041891;28;20323;-67
2022/06/09 11:24:13;;;;;;;6.63;6.03;;;22.10;99.90;;;;;;5038358;28;20270;-66
2022/06/09 11:26:48;;;;;;;6.10;5.23;;;21.90;99.90;;;;;;5041233;28;20232;-67
2022/06/09 11:29:41;;;;;;;5.27;4.77;;;22.10;99.90;;;;;;5042786;28;20245;-67
2022/06/09 11:32:20;;;;;;;4.97;4.47;;;23.00;99.90;;;;;;5041687;28;20751;-66
2022/06/09 11:35:01;;;;;;;5.00;4.53;;;23.60;99.90;;;;;;5037696;28;20235;-66
2022/06/09 11:37:42;;;;;;;4.90;4.40;;;23.30;99.90;;;;;;5039522;28;20227;-67
2022/06/09 11:40:22;;;;;;;5.40;4.97;;;22.90;99.90;;;;;;5039390;28;20239;-67
2022/06/09 11:43:11;;;;;;;6.50;5.40;;;22.20;99.90;;;;;;5039309;28;21263;-67
2022/06/09 11:45:50;;;;;;;5.77;5.13;;;22.00;99.90;;;;;;5038818;28;20239;-66
2022/06/09 11:48:29;;;;;;;5.67;5.13;;;22.00;99.90;;;;;;5039653;28;20235;-67
2022/06/09 11:50:58;;;;;;;6.23;5.63;;;21.70;99.90;;;;;;5039120;28;20231;-66
2022/06/09 11:53:28;;;;;;;5.03;4.53;;;22.00;99.90;;;;;;5034583;28;20881;-66
2022/06/09 11:56:34;;;;;;;4.87;4.47;;;22.90;99.90;;;;;;5038987;28;20701;-66
2022/06/09 11:59:05;;;;;;;5.63;4.97;;;23.60;99.90;;;;;;5038746;28;20254;-67
2022/06/09 12:01:45;;;;;;;4.23;3.90;;;23.70;99.90;;;;;;5037432;28;20330;-66
2022/06/09 12:04:27;;;;;;;3.50;3.20;;;23.70;99.90;;;;;;5033560;28;20224;-66
2022/06/09 12:07:20;;;;;;;4.33;3.30;;;24.00;99.90;;;;;;5037605;28;20228;-66
2022/06/09 12:09:59;;;;;;;3.43;2.63;;;23.90;99.90;;;;;;5038472;28;20232;-67
2022/06/09 12:12:32;;;;;;;3.10;2.80;;;24.10;99.90;;;;;;5039069;28;21347;-67
2022/06/09 12:15:19;;;;;;;2.33;2.13;;;24.00;99.90;;;;;;5034328;28;20256;-67
2022/06/09 12:18:05;;;;;;;2.60;2.40;;;24.10;99.90;;;;;;5041017;28;20663;-67
2022/06/09 12:20:42;;;;;;;2.77;2.10;;;24.10;99.90;;;;;;5039609;28;20259;-67
2022/06/09 12:23:28;;;;;;;2.20;2.03;;;24.20;99.90;;;;;;5034877;28;20242;-67
2022/06/09 12:26:26;;;;;;;2.80;2.10;;;24.30;99.90;;;;;;5037108;28;20229;-67
2022/06/09 12:29:17;;;;;;;3.53;1.90;;;24.20;99.90;;;;;;5038131;28;20621;-66
2022/06/09 12:32:22;;;;;;;2.77;2.30;;;24.40;99.90;;;;;;5037759;28;20228;-67
2022/06/09 12:34:52;;;;;;;2.50;2.10;;;24.20;99.90;;;;;;5032906;28;20758;-66
2022/06/09 12:37:24;;;;;;;2.10;1.90;;;24.70;99.90;;;;;;5037741;28;20232;-66
2022/06/09 12:39:55;;;;;;;2.40;2.20;;;24.90;99.90;;;;;;5037888;28;20234;-67
2022/06/09 12:42:27;;;;;;;3.53;2.73;;;24.80;99.90;;;;;;5038127;28;20231;-67
2022/06/09 12:45:03;;;;;;;2.73;2.53;;;24.40;99.90;;;;;;5032712;28;20235;-68
2022/06/09 12:47:31;;;;;;;3.90;2.60;;;24.30;99.90;;;;;;5038758;28;20358;-67
2022/06/09 12:50:04;;;;;;;2.17;1.97;;;24.10;99.90;;;;;;5038282;28;20579;-66
2022/06/09 12:52:39;;;;;;;2.87;2.57;;;23.80;99.90;;;;;;5060207;28;20256;-68
2022/06/09 12:55:14;;;;;;;3.20;2.40;;;23.40;99.90;;;;;;5032654;28;20746;-66
2022/06/09 12:57:46;;;;;;;2.63;2.43;;;23.20;99.90;;;;;;5037529;28;20284;-68
2022/06/09 13:00:21;;;;;;;4.40;2.60;;;23.00;99.90;;;;;;5038182;28;20264;-66
2022/06/09 13:02:50;;;;;;;3.07;2.67;;;22.90;99.90;;;;;;5037332;28;20235;-67
2022/06/09 13:05:22;;;;;;;4.30;2.83;;;22.70;99.90;;;;;;5032039;28;20224;-67
2022/06/09 13:07:54;;;;;;;3.20;2.20;;;22.50;99.90;;;;;;5037730;28;20232;-67
2022/06/09 13:10:26;;;;;;;2.17;1.97;;;22.60;99.90;;;;;;5037399;28;20289;-66
2022/06/09 13:13:02;;;;;;;2.93;1.90;;;22.70;99.90;;;;;;5038554;28;20224;-68
2022/06/09 13:15:38;;;;;;;1.83;1.73;;;22.80;99.90;;;;;;5038028;28;20238;-67
2022/06/09 13:18:25;;;;;;;2.87;1.90;;;22.90;99.90;;;;;;5041564;28;20232;-67
2022/06/09 13:20:59;;;;;;;3.43;1.90;;;23.10;99.90;;;;;;5041836;28;20243;-67
2022/06/09 13:23:31;;;;;;;2.20;1.50;;;23.10;99.90;;;;;;5036448;28;20308;-67
2022/06/09 13:26:00;;;;;;;2.00;1.53;;;23.20;99.90;;;;;;5040366;28;20270;-65
2022/06/09 13:28:40;;;;;;;2.73;1.90;;;23.00;99.90;;;;;;5040459;28;20239;-66
2022/06/09 13:31:25;;;;;;;3.27;2.50;;;22.50;99.90;;;;;;5040872;28;20293;-67
2022/06/09 13:33:57;;;;;;;3.20;1.93;;;22.30;99.90;;;;;;5035800;28;20289;-66
2022/06/09 13:36:32;;;;;;;4.20;1.90;;;22.20;99.90;;;;;;5040676;28;20227;-66
2022/06/09 13:39:34;;;;;;;3.87;1.70;;;22.40;99.90;;;;;;5042135;28;20239;-67